sensor_id;sensor_type;location;lat;lon;timestamp;temperature;humidity
4520;DHT22;2272;49.226;8.108;2022-08-19T00:00:48;20.80;99.90
4520;DHT22;2272;49.226;8.108;2022-08-19T00:03:16;20.80;99.90
4520;DHT22;2272;49.226;8.108;2022-08-19T00:05:43;20.80;99.90
4520;DHT22;2272;49.226;8.108;2022-08-19T00:08:11;20.80;99.90
4520;DHT22;2272;49.226;8.108;2022-08-19T00:10:38;20.70;99.90
4520;DHT22;2272;49.226;8.108;2022-08-19T00:13:05;20.70;99.90
4520;DHT22;2272;49.226;8.108;2022-08-19T00:15:31;20.60;99.90
4520;DHT22;2272;49.226;8.108;2022-08-19T00:17:58;20.60;99.90
4520;DHT22;2272;49.226;8.108;2022-08-19T00:20:25;20.70;99.90
4520;DHT22;2272;49.226;8.108;2022-08-19T00:22:52;20.60;99.90
4520;DHT22;2272;49.226;8.108;2022-08-19T00:25:21;20.60;99.90
4520;DHT22;2272;49.226;8.108;2022-08-19T00:27:47;20.50;99.90
4520;DHT22;2272;49.226;8.108;2022-08-19T00:30:15;20.50;99.90
4520;DHT22;2272;49.226;8.108;2022-08-19T00:32:41;20.50;99.90
4520;DHT22;2272;49.226;8.108;2022-08-19T00:35:09;20.50;99.90
4520;DHT22;2272;49.226;8.108;2022-08-19T00:37:37;20.50;99.90
4520;DHT22;2272;49.226;8.108;2022-08-19T00:40:05;20.50;99.90
4520;DHT22;2272;49.226;8.108;2022-08-19T00:42:34;20.50;99.90
4520;DHT22;2272;49.226;8.108;2022-08-19T00:45:01;20.50;99.90
4520;DHT22;2272;49.226;8.108;2022-08-19T00:47:27;20.50;99.90
4520;DHT22;2272;49.226;8.108;2022-08-19T00:49:57;20.50;99.90
4520;DHT22;2272;49.226;8.108;2022-08-19T00:52:27;20.50;99.90
4520;DHT22;2272;49.226;8.108;2022-08-19T00:54:57;20.40;99.90
4520;DHT22;2272;49.226;8.108;2022-08-19T00:57:28;20.40;99.90
4520;DHT22;2272;49.226;8.108;2022-08-19T00:59:57;20.40;99.90
4520;DHT22;2272;49.226;8.108;2022-08-19T01:02:26;20.40;99.90
4520;DHT22;2272;49.226;8.108;2022-08-19T01:04:54;20.40;99.90
4520;DHT22;2272;49.226;8.108;2022-08-19T01:07:21;20.30;99.90
4520;DHT22;2272;49.226;8.108;2022-08-19T01:09:48;20.30;99.90
4520;DHT22;2272;49.226;8.108;2022-08-19T01:12:16;20.30;99.90
4520;DHT22;2272;49.226;8.108;2022-08-19T01:14:43;20.30;99.90
4520;DHT22;2272;49.226;8.108;2022-08-19T01:17:12;20.30;99.90
4520;DHT22;2272;49.226;8.108;2022-08-19T01:19:41;20.20;99.90
4520;DHT22;2272;49.226;8.108;2022-08-19T01:22:18;20.10;99.90
4520;DHT22;2272;49.226;8.108;2022-08-19T01:24:47;20.10;99.90
4520;DHT22;2272;49.226;8.108;2022-08-19T01:27:14;20.10;99.90
4520;DHT22;2272;49.226;8.108;2022-08-19T01:29:42;20.00;99.90
4520;DHT22;2272;49.226;8.108;2022-08-19T01:32:12;20.00;99.90
4520;DHT22;2272;49.226;8.108;2022-08-19T01:34:40;20.00;99.90
4520;DHT22;2272;49.226;8.108;2022-08-19T01:37:09;20.00;99.90
4520;DHT22;2272;49.226;8.108;2022-08-19T01:39:37;20.00;99.90
4520;DHT22;2272;49.226;8.108;2022-08-19T01:42:07;20.00;99.90
4520;DHT22;2272;49.226;8.108;2022-08-19T01:44:36;20.00;99.90
4520;DHT22;2272;49.226;8.108;2022-08-19T01:47:03;20.00;99.90
4520;DHT22;2272;49.226;8.108;2022-08-19T01:49:30;20.00;99.90
4520;DHT22;2272;49.226;8.108;2022-08-19T01:52:00;20.00;99.90
4520;DHT22;2272;49.226;8.108;2022-08-19T01:54:27;20.00;99.90
4520;DHT22;2272;49.226;8.108;2022-08-19T01:56:57;20.00;99.90
4520;DHT22;2272;49.226;8.108;2022-08-19T01:59:26;20.10;99.90
4520;DHT22;2272;49.226;8.108;2022-08-19T02:01:54;20.10;99.90
4520;DHT22;2272;49.226;8.108;2022-08-19T02:04:20;20.20;99.90
4520;DHT22;2272;49.226;8.108;2022-08-19T02:06:50;20.10;99.90
4520;DHT22;2272;49.226;8.108;2022-08-19T02:09:17;20.10;99.90
4520;DHT22;2272;49.226;8.108;2022-08-19T02:11:44;20.10;99.90
4520;DHT22;2272;49.226;8.108;2022-08-19T02:14:10;20.10;99.90
4520;DHT22;2272;49.226;8.108;2022-08-19T02:16:39;20.20;99.90
4520;DHT22;2272;49.226;8.108;2022-08-19T02:19:06;20.20;99.90
4520;DHT22;2272;49.226;8.108;2022-08-19T02:21:33;20.20;99.90
4520;DHT22;2272;49.226;8.108;2022-08-19T02:24:00;20.20;99.90
4520;DHT22;2272;49.226;8.108;2022-08-19T02:26:28;20.20;99.90
4520;DHT22;2272;49.226;8.108;2022-08-19T02:28:55;20.20;99.90
4520;DHT22;2272;49.226;8.108;2022-08-19T02:31:24;20.20;99.90
4520;DHT22;2272;49.226;8.108;2022-08-19T02:33:55;20.20;99.90
4520;DHT22;2272;49.226;8.108;2022-08-19T02:36:22;20.20;99.90
4520;DHT22;2272;49.226;8.108;2022-08-19T02:38:49;20.20;99.90
4520;DHT22;2272;49.226;8.108;2022-08-19T02:41:17;20.20;99.90
4520;DHT22;2272;49.226;8.108;2022-08-19T02:43:44;20.10;99.90
4520;DHT22;2272;49.226;8.108;2022-08-19T02:46:13;20.10;99.90
4520;DHT22;2272;49.226;8.108;2022-08-19T02:48:43;20.00;99.90
4520;DHT22;2272;49.226;8.108;2022-08-19T02:51:16;20.00;99.90
4520;DHT22;2272;49.226;8.108;2022-08-19T02:53:43;20.00;99.90
4520;DHT22;2272;49.226;8.108;2022-08-19T02:56:10;20.00;99.90
4520;DHT22;2272;49.226;8.108;2022-08-19T02:58:37;20.00;99.90
4520;DHT22;2272;49.226;8.108;2022-08-19T03:01:03;20.00;99.90
4520;DHT22;2272;49.226;8.108;2022-08-19T03:03:31;20.10;99.90
4520;DHT22;2272;49.226;8.108;2022-08-19T03:06:11;20.00;99.90
4520;DHT22;2272;49.226;8.108;2022-08-19T03:08:40;20.00;99.90
4520;DHT22;2272;49.226;8.108;2022-08-19T03:11:13;20.00;99.90
4520;DHT22;2272;49.226;8.108;2022-08-19T03:13:40;19.90;99.90
4520;DHT22;2272;49.226;8.108;2022-08-19T03:16:08;19.90;99.90
4520;DHT22;2272;49.226;8.108;2022-08-19T03:18:35;19.80;99.90
4520;DHT22;2272;49.226;8.108;2022-08-19T03:21:02;19.80;99.90
4520;DHT22;2272;49.226;8.108;2022-08-19T03:23:30;19.80;99.90
4520;DHT22;2272;49.226;8.108;2022-08-19T03:25:57;19.80;99.90
4520;DHT22;2272;49.226;8.108;2022-08-19T03:28:24;19.70;99.90
4520;DHT22;2272;49.226;8.108;2022-08-19T03:30:56;19.70;99.90
4520;DHT22;2272;49.226;8.108;2022-08-19T03:33:24;19.60;99.90
4520;DHT22;2272;49.226;8.108;2022-08-19T03:36:07;19.60;99.90
4520;DHT22;2272;49.226;8.108;2022-08-19T03:38:37;19.60;99.90
4520;DHT22;2272;49.226;8.108;2022-08-19T03:41:06;19.60;99.90
4520;DHT22;2272;49.226;8.108;2022-08-19T03:43:35;19.60;99.90
4520;DHT22;2272;49.226;8.108;2022-08-19T03:46:03;19.60;99.90
4520;DHT22;2272;49.226;8.108;2022-08-19T03:48:32;19.70;99.90
4520;DHT22;2272;49.226;8.108;2022-08-19T03:51:00;19.70;99.90
4520;DHT22;2272;49.226;8.108;2022-08-19T03:53:27;19.60;99.90
4520;DHT22;2272;49.226;8.108;2022-08-19T03:55:56;19.60;99.90
4520;DHT22;2272;49.226;8.108;2022-08-19T03:58:24;19.60;99.90
4520;DHT22;2272;49.226;8.108;2022-08-19T04:00:51;19.60;99.90
4520;DHT22;2272;49.226;8.108;2022-08-19T04:03:18;19.60;99.90
4520;DHT22;2272;49.226;8.108;2022-08-19T04:05:46;19.60;99.90
4520;DHT22;2272;49.226;8.108;2022-08-19T04:08:13;19.60;99.90
4520;DHT22;2272;49.226;8.108;2022-08-19T04:10:47;19.60;99.90
4520;DHT22;2272;49.226;8.108;2022-08-19T04:13:16;19.70;99.90
4520;DHT22;2272;49.226;8.108;2022-08-19T04:15:45;19.70;99.90
4520;DHT22;2272;49.226;8.108;2022-08-19T04:18:13;19.70;99.90
4520;DHT22;2272;49.226;8.108;2022-08-19T04:20:46;19.70;99.90
4520;DHT22;2272;49.226;8.108;2022-08-19T04:23:14;19.70;99.90
4520;DHT22;2272;49.226;8.108;2022-08-19T04:25:42;19.70;99.90
4520;DHT22;2272;49.226;8.108;2022-08-19T04:28:11;19.80;99.90
4520;DHT22;2272;49.226;8.108;2022-08-19T04:30:42;19.70;99.90
4520;DHT22;2272;49.226;8.108;2022-08-19T04:33:10;19.70;99.90
4520;DHT22;2272;49.226;8.108;2022-08-19T04:35:38;19.70;99.90
4520;DHT22;2272;49.226;8.108;2022-08-19T04:38:06;19.70;99.90
4520;DHT22;2272;49.226;8.108;2022-08-19T04:40:33;19.70;99.90
4520;DHT22;2272;49.226;8.108;2022-08-19T04:43:17;19.70;99.90
4520;DHT22;2272;49.226;8.108;2022-08-19T04:45:46;19.80;99.90
4520;DHT22;2272;49.226;8.108;2022-08-19T04:48:13;19.90;99.90
4520;DHT22;2272;49.226;8.108;2022-08-19T04:50:41;20.00;99.90
4520;DHT22;2272;49.226;8.108;2022-08-19T04:53:09;20.10;99.90
4520;DHT22;2272;49.226;8.108;2022-08-19T04:55:39;20.20;99.90
4520;DHT22;2272;49.226;8.108;2022-08-19T04:58:06;20.20;99.90
4520;DHT22;2272;49.226;8.108;2022-08-19T05:00:33;20.20;99.90
4520;DHT22;2272;49.226;8.108;2022-08-19T05:03:01;20.20;99.90
4520;DHT22;2272;49.226;8.108;2022-08-19T05:05:28;20.20;99.90
4520;DHT22;2272;49.226;8.108;2022-08-19T05:07:56;20.20;99.90
4520;DHT22;2272;49.226;8.108;2022-08-19T05:10:23;20.10;99.90
4520;DHT22;2272;49.226;8.108;2022-08-19T05:12:50;20.10;99.90
4520;DHT22;2272;49.226;8.108;2022-08-19T05:15:17;20.10;99.90
4520;DHT22;2272;49.226;8.108;2022-08-19T05:17:44;20.10;99.90
4520;DHT22;2272;49.226;8.108;2022-08-19T05:20:32;20.10;99.90
4520;DHT22;2272;49.226;8.108;2022-08-19T05:23:16;20.20;99.90
4520;DHT22;2272;49.226;8.108;2022-08-19T05:25:43;20.20;99.90
4520;DHT22;2272;49.226;8.108;2022-08-19T05:28:10;20.30;99.90
4520;DHT22;2272;49.226;8.108;2022-08-19T05:30:37;20.40;99.90
4520;DHT22;2272;49.226;8.108;2022-08-19T05:33:06;20.50;99.90
4520;DHT22;2272;49.226;8.108;2022-08-19T05:35:35;20.60;99.90
4520;DHT22;2272;49.226;8.108;2022-08-19T05:38:03;20.60;99.90
4520;DHT22;2272;49.226;8.108;2022-08-19T05:40:30;20.70;99.90
4520;DHT22;2272;49.226;8.108;2022-08-19T05:42:59;20.80;99.90
4520;DHT22;2272;49.226;8.108;2022-08-19T05:45:26;20.90;99.90
4520;DHT22;2272;49.226;8.108;2022-08-19T05:47:53;20.90;99.90
4520;DHT22;2272;49.226;8.108;2022-08-19T05:50:20;20.90;99.90
4520;DHT22;2272;49.226;8.108;2022-08-19T05:52:49;21.00;99.90
4520;DHT22;2272;49.226;8.108;2022-08-19T05:55:15;21.00;99.90
4520;DHT22;2272;49.226;8.108;2022-08-19T05:57:45;21.10;99.90
4520;DHT22;2272;49.226;8.108;2022-08-19T06:00:13;21.10;99.90
4520;DHT22;2272;49.226;8.108;2022-08-19T06:02:40;21.10;99.90
4520;DHT22;2272;49.226;8.108;2022-08-19T06:05:08;21.10;99.90
4520;DHT22;2272;49.226;8.108;2022-08-19T06:07:35;21.10;99.90
4520;DHT22;2272;49.226;8.108;2022-08-19T06:10:06;21.10;99.90
4520;DHT22;2272;49.226;8.108;2022-08-19T06:12:34;21.10;99.90
4520;DHT22;2272;49.226;8.108;2022-08-19T06:15:06;21.10;99.90
4520;DHT22;2272;49.226;8.108;2022-08-19T06:17:34;21.20;99.90
4520;DHT22;2272;49.226;8.108;2022-08-19T06:20:01;21.20;99.90
4520;DHT22;2272;49.226;8.108;2022-08-19T06:22:28;21.30;99.90
4520;DHT22;2272;49.226;8.108;2022-08-19T06:24:55;21.40;99.90
4520;DHT22;2272;49.226;8.108;2022-08-19T06:27:24;21.40;99.90
4520;DHT22;2272;49.226;8.108;2022-08-19T06:29:51;21.50;99.90
4520;DHT22;2272;49.226;8.108;2022-08-19T06:32:18;21.60;99.90
4520;DHT22;2272;49.226;8.108;2022-08-19T06:34:45;21.70;99.90
4520;DHT22;2272;49.226;8.108;2022-08-19T06:37:13;21.80;99.90
4520;DHT22;2272;49.226;8.108;2022-08-19T06:39:43;21.80;99.90
4520;DHT22;2272;49.226;8.108;2022-08-19T06:42:12;21.90;99.90
4520;DHT22;2272;49.226;8.108;2022-08-19T06:44:44;22.10;99.90
4520;DHT22;2272;49.226;8.108;2022-08-19T06:47:13;22.10;99.90
4520;DHT22;2272;49.226;8.108;2022-08-19T06:49:40;22.10;99.90
4520;DHT22;2272;49.226;8.108;2022-08-19T06:52:08;22.20;99.90
4520;DHT22;2272;49.226;8.108;2022-08-19T06:54:37;22.20;99.90
4520;DHT22;2272;49.226;8.108;2022-08-19T06:57:04;22.20;99.90
4520;DHT22;2272;49.226;8.108;2022-08-19T06:59:32;22.30;99.90
4520;DHT22;2272;49.226;8.108;2022-08-19T07:02:04;22.30;99.90
4520;DHT22;2272;49.226;8.108;2022-08-19T07:04:34;22.40;99.90
4520;DHT22;2272;49.226;8.108;2022-08-19T07:07:03;22.60;99.90
4520;DHT22;2272;49.226;8.108;2022-08-19T07:09:31;22.60;99.90
4520;DHT22;2272;49.226;8.108;2022-08-19T07:11:58;22.80;99.90
4520;DHT22;2272;49.226;8.108;2022-08-19T07:14:26;22.90;99.90
4520;DHT22;2272;49.226;8.108;2022-08-19T07:16:55;23.00;99.90
4520;DHT22;2272;49.226;8.108;2022-08-19T07:19:26;23.10;99.90
4520;DHT22;2272;49.226;8.108;2022-08-19T07:21:53;23.10;99.90
4520;DHT22;2272;49.226;8.108;2022-08-19T07:24:22;23.10;99.90
4520;DHT22;2272;49.226;8.108;2022-08-19T07:26:51;23.20;99.90
4520;DHT22;2272;49.226;8.108;2022-08-19T07:29:19;23.30;99.90
4520;DHT22;2272;49.226;8.108;2022-08-19T07:31:48;23.40;99.90
4520;DHT22;2272;49.226;8.108;2022-08-19T07:34:16;23.50;99.90
4520;DHT22;2272;49.226;8.108;2022-08-19T07:36:44;23.60;99.90
4520;DHT22;2272;49.226;8.108;2022-08-19T07:39:14;23.50;99.90
4520;DHT22;2272;49.226;8.108;2022-08-19T07:41:42;23.40;99.90
4520;DHT22;2272;49.226;8.108;2022-08-19T07:44:10;23.40;99.90
4520;DHT22;2272;49.226;8.108;2022-08-19T07:46:40;23.50;99.90
4520;DHT22;2272;49.226;8.108;2022-08-19T07:49:07;23.60;99.90
4520;DHT22;2272;49.226;8.108;2022-08-19T07:51:47;23.80;99.90
4520;DHT22;2272;49.226;8.108;2022-08-19T07:54:15;24.00;99.90
4520;DHT22;2272;49.226;8.108;2022-08-19T07:56:42;24.20;99.90
4520;DHT22;2272;49.226;8.108;2022-08-19T07:59:09;24.30;99.90
4520;DHT22;2272;49.226;8.108;2022-08-19T08:01:36;24.30;99.90
4520;DHT22;2272;49.226;8.108;2022-08-19T08:04:05;24.20;99.90
4520;DHT22;2272;49.226;8.108;2022-08-19T08:06:51;24.10;99.90
4520;DHT22;2272;49.226;8.108;2022-08-19T08:09:39;24.10;99.90
4520;DHT22;2272;49.226;8.108;2022-08-19T08:12:09;24.30;99.90
4520;DHT22;2272;49.226;8.108;2022-08-19T08:14:39;24.40;99.90
4520;DHT22;2272;49.226;8.108;2022-08-19T08:17:07;24.50;99.90
4520;DHT22;2272;49.226;8.108;2022-08-19T08:19:35;24.60;99.90
4520;DHT22;2272;49.226;8.108;2022-08-19T08:22:03;24.60;99.90
4520;DHT22;2272;49.226;8.108;2022-08-19T08:24:32;24.60;99.90
4520;DHT22;2272;49.226;8.108;2022-08-19T08:27:01;24.80;99.90
4520;DHT22;2272;49.226;8.108;2022-08-19T08:29:30;24.80;99.90
4520;DHT22;2272;49.226;8.108;2022-08-19T08:31:58;24.80;99.90
4520;DHT22;2272;49.226;8.108;2022-08-19T08:34:25;24.70;99.90
4520;DHT22;2272;49.226;8.108;2022-08-19T08:36:51;24.70;99.90
4520;DHT22;2272;49.226;8.108;2022-08-19T08:39:21;24.70;99.90
4520;DHT22;2272;49.226;8.108;2022-08-19T08:41:53;24.80;99.90
4520;DHT22;2272;49.226;8.108;2022-08-19T08:44:27;25.00;99.90
4520;DHT22;2272;49.226;8.108;2022-08-19T08:46:58;25.20;99.90
4520;DHT22;2272;49.226;8.108;2022-08-19T08:49:36;25.30;99.90
4520;DHT22;2272;49.226;8.108;2022-08-19T08:52:11;25.30;99.90
4520;DHT22;2272;49.226;8.108;2022-08-19T08:54:48;25.40;99.90
4520;DHT22;2272;49.226;8.108;2022-08-19T08:57:20;25.50;99.90
4520;DHT22;2272;49.226;8.108;2022-08-19T08:59:51;25.60;99.90
4520;DHT22;2272;49.226;8.108;2022-08-19T09:02:18;25.60;99.90
4520;DHT22;2272;49.226;8.108;2022-08-19T09:04:45;25.40;99.90
4520;DHT22;2272;49.226;8.108;2022-08-19T09:07:21;25.30;99.90
4520;DHT22;2272;49.226;8.108;2022-08-19T09:10:03;25.10;99.90
4520;DHT22;2272;49.226;8.108;2022-08-19T09:12:35;25.30;99.90
4520;DHT22;2272;49.226;8.108;2022-08-19T09:15:10;25.50;99.90
4520;DHT22;2272;49.226;8.108;2022-08-19T09:17:41;25.80;99.90
4520;DHT22;2272;49.226;8.108;2022-08-19T09:20:16;26.10;99.90
4520;DHT22;2272;49.226;8.108;2022-08-19T09:22:44;26.70;99.90
4520;DHT22;2272;49.226;8.108;2022-08-19T09:25:15;27.00;99.90
4520;DHT22;2272;49.226;8.108;2022-08-19T09:27:44;27.30;99.90
4520;DHT22;2272;49.226;8.108;2022-08-19T09:30:14;27.30;99.90
4520;DHT22;2272;49.226;8.108;2022-08-19T09:32:41;27.20;99.90
4520;DHT22;2272;49.226;8.108;2022-08-19T09:35:08;27.20;99.90
4520;DHT22;2272;49.226;8.108;2022-08-19T09:37:36;27.50;99.90
4520;DHT22;2272;49.226;8.108;2022-08-19T09:40:04;27.70;99.90
4520;DHT22;2272;49.226;8.108;2022-08-19T09:42:46;27.80;99.90
4520;DHT22;2272;49.226;8.108;2022-08-19T09:45:45;28.20;99.90
4520;DHT22;2272;49.226;8.108;2022-08-19T09:48:13;28.60;99.90
4520;DHT22;2272;49.226;8.108;2022-08-19T09:50:40;28.50;99.90
4520;DHT22;2272;49.226;8.108;2022-08-19T09:53:07;28.20;99.90
4520;DHT22;2272;49.226;8.108;2022-08-19T09:55:33;27.80;99.90
4520;DHT22;2272;49.226;8.108;2022-08-19T09:58:02;27.40;99.90
4520;DHT22;2272;49.226;8.108;2022-08-19T10:00:29;27.00;99.90
4520;DHT22;2272;49.226;8.108;2022-08-19T10:02:57;26.80;99.90
4520;DHT22;2272;49.226;8.108;2022-08-19T10:05:25;26.50;99.90
4520;DHT22;2272;49.226;8.108;2022-08-19T10:08:09;26.80;99.90
4520;DHT22;2272;49.226;8.108;2022-08-19T10:10:37;27.30;99.90
4520;DHT22;2272;49.226;8.108;2022-08-19T10:13:05;27.80;99.90
4520;DHT22;2272;49.226;8.108;2022-08-19T10:15:34;28.00;99.90
4520;DHT22;2272;49.226;8.108;2022-08-19T10:18:03;28.30;99.90
4520;DHT22;2272;49.226;8.108;2022-08-19T10:20:46;28.60;99.90
4520;DHT22;2272;49.226;8.108;2022-08-19T10:23:13;28.70;99.90
4520;DHT22;2272;49.226;8.108;2022-08-19T10:25:44;28.70;99.90
4520;DHT22;2272;49.226;8.108;2022-08-19T10:28:12;28.90;99.90
4520;DHT22;2272;49.226;8.108;2022-08-19T10:30:50;29.00;99.90
4520;DHT22;2272;49.226;8.108;2022-08-19T10:33:17;29.30;99.90
4520;DHT22;2272;49.226;8.108;2022-08-19T10:35:43;29.50;99.90
4520;DHT22;2272;49.226;8.108;2022-08-19T10:38:12;29.50;99.90
4520;DHT22;2272;49.226;8.108;2022-08-19T10:40:38;29.30;99.90
4520;DHT22;2272;49.226;8.108;2022-08-19T10:43:05;29.00;99.90
4520;DHT22;2272;49.226;8.108;2022-08-19T10:45:33;28.60;99.90
4520;DHT22;2272;49.226;8.108;2022-08-19T10:48:00;28.20;99.90
4520;DHT22;2272;49.226;8.108;2022-08-19T10:50:27;27.80;99.90
4520;DHT22;2272;49.226;8.108;2022-08-19T10:53:11;27.70;99.90
4520;DHT22;2272;49.226;8.108;2022-08-19T10:55:38;27.60;99.90
4520;DHT22;2272;49.226;8.108;2022-08-19T10:58:28;27.40;99.90
4520;DHT22;2272;49.226;8.108;2022-08-19T11:01:03;27.30;99.90
4520;DHT22;2272;49.226;8.108;2022-08-19T11:03:44;27.20;99.90
4520;DHT22;2272;49.226;8.108;2022-08-19T11:06:14;27.20;99.90
4520;DHT22;2272;49.226;8.108;2022-08-19T11:08:41;27.20;99.90
4520;DHT22;2272;49.226;8.108;2022-08-19T11:11:10;27.40;99.90
4520;DHT22;2272;49.226;8.108;2022-08-19T11:13:40;27.60;99.90
4520;DHT22;2272;49.226;8.108;2022-08-19T11:16:11;28.10;99.90
4520;DHT22;2272;49.226;8.108;2022-08-19T11:18:40;28.70;99.90
4520;DHT22;2272;49.226;8.108;2022-08-19T11:21:13;29.60;99.90
4520;DHT22;2272;49.226;8.108;2022-08-19T11:23:42;29.90;99.90
4520;DHT22;2272;49.226;8.108;2022-08-19T11:26:10;29.90;99.90
4520;DHT22;2272;49.226;8.108;2022-08-19T11:28:40;29.90;99.90
4520;DHT22;2272;49.226;8.108;2022-08-19T11:31:19;29.60;99.90
4520;DHT22;2272;49.226;8.108;2022-08-19T11:33:46;29.30;99.90
4520;DHT22;2272;49.226;8.108;2022-08-19T11:36:20;29.00;99.90
4520;DHT22;2272;49.226;8.108;2022-08-19T11:38:50;28.80;99.90
4520;DHT22;2272;49.226;8.108;2022-08-19T11:41:19;28.90;98.50
4520;DHT22;2272;49.226;8.108;2022-08-19T11:43:48;29.00;99.20
4520;DHT22;2272;49.226;8.108;2022-08-19T11:46:17;29.10;99.20
4520;DHT22;2272;49.226;8.108;2022-08-19T11:48:44;29.20;99.20
4520;DHT22;2272;49.226;8.108;2022-08-19T11:51:14;29.20;99.00
4520;DHT22;2272;49.226;8.108;2022-08-19T11:53:41;29.20;98.90
4520;DHT22;2272;49.226;8.108;2022-08-19T11:56:19;29.40;98.60
4520;DHT22;2272;49.226;8.108;2022-08-19T11:59:01;29.50;98.00
4520;DHT22;2272;49.226;8.108;2022-08-19T12:01:29;29.50;97.80
4520;DHT22;2272;49.226;8.108;2022-08-19T12:03:58;29.80;97.80
4520;DHT22;2272;49.226;8.108;2022-08-19T12:06:29;30.00;97.30
4520;DHT22;2272;49.226;8.108;2022-08-19T12:08:59;29.80;97.40
4520;DHT22;2272;49.226;8.108;2022-08-19T12:11:26;29.70;95.40
4520;DHT22;2272;49.226;8.108;2022-08-19T12:13:59;29.60;95.70
4520;DHT22;2272;49.226;8.108;2022-08-19T12:16:29;29.50;95.60
4520;DHT22;2272;49.226;8.108;2022-08-19T12:18:57;29.70;95.80
4520;DHT22;2272;49.226;8.108;2022-08-19T12:21:28;29.90;95.70
4520;DHT22;2272;49.226;8.108;2022-08-19T12:23:57;30.00;95.40
4520;DHT22;2272;49.226;8.108;2022-08-19T12:26:25;30.00;95.20
4520;DHT22;2272;49.226;8.108;2022-08-19T12:28:52;30.00;95.10
4520;DHT22;2272;49.226;8.108;2022-08-19T12:31:19;29.70;94.90
4520;DHT22;2272;49.226;8.108;2022-08-19T12:33:47;29.60;95.20
4520;DHT22;2272;49.226;8.108;2022-08-19T12:36:15;29.40;94.80
4520;DHT22;2272;49.226;8.108;2022-08-19T12:38:43;29.40;95.20
4520;DHT22;2272;49.226;8.108;2022-08-19T12:41:12;29.80;95.40
4520;DHT22;2272;49.226;8.108;2022-08-19T12:43:39;30.40;95.20
4520;DHT22;2272;49.226;8.108;2022-08-19T12:46:07;30.90;94.40
4520;DHT22;2272;49.226;8.108;2022-08-19T12:48:34;31.00;93.60
4520;DHT22;2272;49.226;8.108;2022-08-19T12:51:06;31.30;93.90
4520;DHT22;2272;49.226;8.108;2022-08-19T12:53:33;31.30;93.80
4520;DHT22;2272;49.226;8.108;2022-08-19T12:56:01;31.40;93.50
4520;DHT22;2272;49.226;8.108;2022-08-19T12:58:29;31.60;93.00
4520;DHT22;2272;49.226;8.108;2022-08-19T13:00:55;31.80;92.30
4520;DHT22;2272;49.226;8.108;2022-08-19T13:03:22;31.50;92.70
4520;DHT22;2272;49.226;8.108;2022-08-19T13:05:54;31.10;92.80
4520;DHT22;2272;49.226;8.108;2022-08-19T13:08:23;30.80;93.30
4520;DHT22;2272;49.226;8.108;2022-08-19T13:10:49;30.50;93.20
4520;DHT22;2272;49.226;8.108;2022-08-19T13:13:16;30.70;93.20
4520;DHT22;2272;49.226;8.108;2022-08-19T13:15:43;31.10;93.20
4520;DHT22;2272;49.226;8.108;2022-08-19T13:18:11;31.60;91.70
4520;DHT22;2272;49.226;8.108;2022-08-19T13:20:38;32.00;91.20
4520;DHT22;2272;49.226;8.108;2022-08-19T13:23:06;32.10;91.10
4520;DHT22;2272;49.226;8.108;2022-08-19T13:25:34;32.40;91.00
4520;DHT22;2272;49.226;8.108;2022-08-19T13:28:02;32.80;91.00
4520;DHT22;2272;49.226;8.108;2022-08-19T13:30:32;32.70;90.50
4520;DHT22;2272;49.226;8.108;2022-08-19T13:33:21;32.40;90.60
4520;DHT22;2272;49.226;8.108;2022-08-19T13:39:48;32.10;91.20
4520;DHT22;2272;49.226;8.108;2022-08-19T13:42:16;32.30;91.10
4520;DHT22;2272;49.226;8.108;2022-08-19T13:44:44;32.30;91.00
4520;DHT22;2272;49.226;8.108;2022-08-19T13:47:13;32.40;90.80
4520;DHT22;2272;49.226;8.108;2022-08-19T13:49:40;32.30;90.80
4520;DHT22;2272;49.226;8.108;2022-08-19T13:52:06;32.20;91.20
4520;DHT22;2272;49.226;8.108;2022-08-19T13:54:33;32.00;90.90
4520;DHT22;2272;49.226;8.108;2022-08-19T13:57:00;31.50;91.10
4520;DHT22;2272;49.226;8.108;2022-08-19T13:59:28;31.00;91.50
4520;DHT22;2272;49.226;8.108;2022-08-19T14:01:57;30.50;92.20
4520;DHT22;2272;49.226;8.108;2022-08-19T14:04:24;29.90;92.20
4520;DHT22;2272;49.226;8.108;2022-08-19T14:06:51;29.60;93.20
4520;DHT22;2272;49.226;8.108;2022-08-19T14:09:18;29.40;93.70
4520;DHT22;2272;49.226;8.108;2022-08-19T14:11:45;29.20;93.70
4520;DHT22;2272;49.226;8.108;2022-08-19T14:14:11;29.00;93.50
4520;DHT22;2272;49.226;8.108;2022-08-19T14:16:40;28.70;93.40
4520;DHT22;2272;49.226;8.108;2022-08-19T14:19:06;28.60;93.80
4520;DHT22;2272;49.226;8.108;2022-08-19T14:21:33;28.50;94.10
4520;DHT22;2272;49.226;8.108;2022-08-19T14:24:01;28.50;94.00
4520;DHT22;2272;49.226;8.108;2022-08-19T14:26:28;28.50;94.10
4520;DHT22;2272;49.226;8.108;2022-08-19T14:28:55;28.40;93.70
4520;DHT22;2272;49.226;8.108;2022-08-19T14:31:22;28.40;93.80
4520;DHT22;2272;49.226;8.108;2022-08-19T14:33:51;28.30;94.20
4520;DHT22;2272;49.226;8.108;2022-08-19T14:36:18;28.30;94.50
4520;DHT22;2272;49.226;8.108;2022-08-19T14:38:46;28.40;94.70
4520;DHT22;2272;49.226;8.108;2022-08-19T14:41:16;28.40;94.00
4520;DHT22;2272;49.226;8.108;2022-08-19T14:43:55;28.40;93.90
4520;DHT22;2272;49.226;8.108;2022-08-19T14:46:24;28.50;93.50
4520;DHT22;2272;49.226;8.108;2022-08-19T14:48:54;28.70;93.30
4520;DHT22;2272;49.226;8.108;2022-08-19T14:51:22;28.80;93.20
4520;DHT22;2272;49.226;8.108;2022-08-19T14:53:50;29.00;93.10
4520;DHT22;2272;49.226;8.108;2022-08-19T14:56:24;29.20;92.60
4520;DHT22;2272;49.226;8.108;2022-08-19T14:58:52;29.40;92.70
4520;DHT22;2272;49.226;8.108;2022-08-19T15:01:21;29.60;92.60
4520;DHT22;2272;49.226;8.108;2022-08-19T15:03:56;29.80;92.60
4520;DHT22;2272;49.226;8.108;2022-08-19T15:06:26;30.10;92.40
4520;DHT22;2272;49.226;8.108;2022-08-19T15:08:54;30.20;92.30
4520;DHT22;2272;49.226;8.108;2022-08-19T15:11:23;30.30;92.20
4520;DHT22;2272;49.226;8.108;2022-08-19T15:13:51;30.50;91.90
4520;DHT22;2272;49.226;8.108;2022-08-19T15:16:19;30.50;92.10
4520;DHT22;2272;49.226;8.108;2022-08-19T15:18:49;30.50;92.10
4520;DHT22;2272;49.226;8.108;2022-08-19T15:21:17;30.60;91.10
4520;DHT22;2272;49.226;8.108;2022-08-19T15:23:44;30.50;90.80
4520;DHT22;2272;49.226;8.108;2022-08-19T15:26:12;30.70;91.00
4520;DHT22;2272;49.226;8.108;2022-08-19T15:28:40;30.90;90.10
4520;DHT22;2272;49.226;8.108;2022-08-19T15:31:09;31.00;90.30
4520;DHT22;2272;49.226;8.108;2022-08-19T15:33:38;31.00;89.80
4520;DHT22;2272;49.226;8.108;2022-08-19T15:36:07;31.00;90.20
4520;DHT22;2272;49.226;8.108;2022-08-19T15:38:35;31.00;90.50
4520;DHT22;2272;49.226;8.108;2022-08-19T15:41:05;31.20;90.50
4520;DHT22;2272;49.226;8.108;2022-08-19T15:43:46;31.30;89.00
4520;DHT22;2272;49.226;8.108;2022-08-19T15:46:16;31.20;87.80
4520;DHT22;2272;49.226;8.108;2022-08-19T15:48:43;31.30;88.10
4520;DHT22;2272;49.226;8.108;2022-08-19T15:51:16;31.30;87.70
4520;DHT22;2272;49.226;8.108;2022-08-19T15:53:53;31.40;87.90
4520;DHT22;2272;49.226;8.108;2022-08-19T15:56:22;31.30;87.00
4520;DHT22;2272;49.226;8.108;2022-08-19T15:58:49;31.10;86.80
4520;DHT22;2272;49.226;8.108;2022-08-19T16:01:37;30.90;87.50
4520;DHT22;2272;49.226;8.108;2022-08-19T16:04:26;30.70;88.70
4520;DHT22;2272;49.226;8.108;2022-08-19T16:07:11;30.40;89.30
4520;DHT22;2272;49.226;8.108;2022-08-19T16:12:49;29.90;90.60
4520;DHT22;2272;49.226;8.108;2022-08-19T16:15:24;29.80;90.60
4520;DHT22;2272;49.226;8.108;2022-08-19T16:17:52;29.80;90.80
4520;DHT22;2272;49.226;8.108;2022-08-19T16:20:20;30.00;91.30
4520;DHT22;2272;49.226;8.108;2022-08-19T16:22:47;30.00;91.40